Time;durP1;ratioP1;P1;durP2;ratioP2;P2;SDS_P1;SDS_P2;PMS_P1;PMS_P2;Temp;Humidity;BMP_temperature;BMP_pressure;BME280_temperature;BME280_humidity;BME280_pressure;Samples;Min_cycle;Max_cycle;Signal;HPM_P1;HPM_P2
2021/03/30 00:01:09;;;;;;;10.52;6.15;;;9.90;99.90;;;;;;5118646;28;20035;-72
2021/03/30 00:03:35;;;;;;;11.27;6.53;;;9.80;99.90;;;;;;5118814;28;20028;-72
2021/03/30 00:06:01;;;;;;;17.73;7.07;;;9.70;99.90;;;;;;5118134;27;20418;-72
2021/03/30 00:08:27;;;;;;;12.30;6.43;;;9.60;99.90;;;;;;5118555;27;20023;-72
2021/03/30 00:10:53;;;;;;;10.68;7.10;;;9.60;99.90;;;;;;5101277;27;20012;-72
2021/03/30 00:13:19;;;;;;;13.02;5.90;;;9.60;99.90;;;;;;5097775;28;20024;-72
2021/03/30 00:15:45;;;;;;;9.65;6.07;;;9.50;99.90;;;;;;5099431;28;20046;-72
2021/03/30 00:18:11;;;;;;;8.57;6.22;;;9.60;99.90;;;;;;5118353;27;20051;-72
2021/03/30 00:20:37;;;;;;;10.43;6.57;;;9.50;99.90;;;;;;5114486;28;20027;-72
2021/03/30 00:23:03;;;;;;;8.32;6.07;;;9.40;99.90;;;;;;5105044;28;20498;-72
2021/03/30 00:25:28;;;;;;;16.65;7.75;;;9.40;99.90;;;;;;5118956;27;20487;-71
2021/03/30 00:27:54;;;;;;;12.95;5.82;;;9.40;99.90;;;;;;5105537;28;20144;-72
2021/03/30 00:30:20;;;;;;;12.73;6.65;;;9.30;99.90;;;;;;5098070;28;20171;-72
2021/03/30 00:32:45;;;;;;;11.02;6.18;;;9.20;99.90;;;;;;5109191;28;20059;-71
2021/03/30 00:35:11;;;;;;;9.75;7.03;;;9.20;99.90;;;;;;5115010;28;20044;-70
2021/03/30 00:37:38;;;;;;;12.32;6.85;;;9.20;99.90;;;;;;5098177;28;20020;-70
2021/03/30 00:40:08;;;;;;;9.88;6.55;;;9.10;99.90;;;;;;5111884;28;20031;-72
2021/03/30 00:42:34;;;;;;;17.00;7.68;;;9.10;99.90;;;;;;5095433;28;20066;-72
2021/03/30 00:45:00;;;;;;;13.57;7.80;;;9.10;99.90;;;;;;5095097;28;20035;-72
2021/03/30 00:47:28;;;;;;;11.25;7.10;;;9.00;99.90;;;;;;5100216;28;20437;-72
2021/03/30 00:49:55;;;;;;;10.38;6.95;;;9.00;99.90;;;;;;5112261;28;20024;-72
2021/03/30 00:52:21;;;;;;;10.32;7.03;;;9.00;99.90;;;;;;5111678;28;20578;-71
2021/03/30 00:54:47;;;;;;;11.00;7.28;;;9.00;99.90;;;;;;5108607;28;20039;-72
2021/03/30 00:57:15;;;;;;;14.40;7.63;;;8.90;99.90;;;;;;5098728;28;20076;-72
2021/03/30 00:59:41;;;;;;;10.55;7.88;;;8.90;99.90;;;;;;5104448;28;20020;-72
2021/03/30 01:02:07;;;;;;;7.53;6.68;;;8.90;99.90;;;;;;5093517;28;20111;-72
2021/03/30 01:04:32;;;;;;;14.07;7.57;;;8.90;99.90;;;;;;5094624;28;20394;-72
2021/03/30 01:06:58;;;;;;;8.75;7.00;;;8.90;99.90;;;;;;5108854;28;20127;-72
2021/03/30 01:10:06;;;;;;;13.93;7.75;;;8.90;99.90;;;;;;5093356;28;20164;-72
2021/03/30 01:12:49;;;;;;;10.60;7.00;;;8.90;99.90;;;;;;5093989;28;20024;-71
2021/03/30 01:15:37;;;;;;;9.13;6.45;;;8.90;99.90;;;;;;5093656;28;20024;-72
2021/03/30 01:18:20;;;;;;;11.60;7.20;;;8.90;99.90;;;;;;5094329;28;20020;-72
2021/03/30 01:21:23;;;;;;;8.40;6.53;;;8.90;99.90;;;;;;5094222;28;20044;-72
2021/03/30 01:23:58;;;;;;;16.38;7.25;;;8.90;99.90;;;;;;5106190;28;20058;-72
2021/03/30 01:26:29;;;;;;;12.18;7.78;;;8.90;99.90;;;;;;5099983;28;20023;-73
2021/03/30 01:29:38;;;;;;;13.20;7.55;;;8.80;99.90;;;;;;5101089;28;20468;-72
2021/03/30 01:32:05;;;;;;;13.93;7.70;;;8.80;99.90;;;;;;5093800;28;20455;-72
2021/03/30 01:34:31;;;;;;;9.02;7.22;;;8.80;99.90;;;;;;5094051;28;20023;-72
2021/03/30 01:36:59;;;;;;;13.65;7.45;;;8.80;99.90;;;;;;5093503;28;20135;-72
2021/03/30 01:39:25;;;;;;;16.60;8.15;;;8.80;99.90;;;;;;5093639;28;20032;-72
2021/03/30 01:41:52;;;;;;;22.98;7.82;;;8.70;99.90;;;;;;5093819;28;20432;-72
2021/03/30 01:44:19;;;;;;;18.17;7.43;;;8.70;99.90;;;;;;5092804;28;20056;-72
2021/03/30 01:46:46;;;;;;;12.95;7.57;;;8.70;99.90;;;;;;5094037;28;20113;-71
2021/03/30 01:49:14;;;;;;;15.20;6.93;;;8.70;99.90;;;;;;5093647;28;20024;-71
2021/03/30 01:51:41;;;;;;;11.32;7.72;;;8.60;99.90;;;;;;5092965;28;20024;-71
2021/03/30 01:54:08;;;;;;;15.43;8.05;;;8.60;99.90;;;;;;5092869;28;20020;-71
2021/03/30 01:56:35;;;;;;;14.35;7.82;;;8.60;99.90;;;;;;5094394;28;20028;-71
2021/03/30 01:59:03;;;;;;;10.65;7.57;;;8.60;99.90;;;;;;5105777;28;20052;-72
2021/03/30 02:01:30;;;;;;;13.50;7.60;;;8.50;99.90;;;;;;5093630;28;20032;-71
2021/03/30 02:03:59;;;;;;;11.00;7.70;;;8.50;99.90;;;;;;5092896;28;20490;-71
2021/03/30 02:06:27;;;;;;;19.15;9.90;;;8.50;99.90;;;;;;5093249;28;20049;-72
2021/03/30 02:08:56;;;;;;;13.93;8.20;;;8.50;99.90;;;;;;5093311;28;20055;-72
2021/03/30 02:11:28;;;;;;;9.80;7.30;;;8.40;99.90;;;;;;5092363;28;20031;-72
2021/03/30 02:13:56;;;;;;;15.65;8.05;;;8.40;99.90;;;;;;5093165;28;20028;-72
2021/03/30 02:16:30;;;;;;;11.05;8.65;;;8.40;99.90;;;;;;5093176;28;20037;-72
2021/03/30 02:19:13;;;;;;;14.13;7.20;;;8.40;99.90;;;;;;5092116;28;20052;-73
2021/03/30 02:21:44;;;;;;;10.70;8.02;;;8.40;99.90;;;;;;5093069;28;20184;-72
2021/03/30 02:24:12;;;;;;;15.32;8.10;;;8.30;99.90;;;;;;5092702;28;20012;-72
2021/03/30 02:26:44;;;;;;;12.40;8.05;;;8.30;99.90;;;;;;5092094;28;20024;-71
2021/03/30 02:29:14;;;;;;;9.95;8.18;;;8.20;99.90;;;;;;5092573;28;20407;-72
2021/03/30 02:31:42;;;;;;;16.38;8.40;;;8.10;99.90;;;;;;5093068;28;20082;-71
2021/03/30 02:34:10;;;;;;;11.38;7.63;;;8.10;99.90;;;;;;5092028;28;20062;-72
2021/03/30 02:36:36;;;;;;;17.25;8.80;;;8.10;99.90;;;;;;5092862;28;20019;-72
2021/03/30 02:39:09;;;;;;;9.55;8.13;;;8.00;99.90;;;;;;5092859;28;20036;-72
2021/03/30 02:41:37;;;;;;;13.52;8.27;;;8.00;99.90;;;;;;5092949;28;20046;-73
2021/03/30 02:44:04;;;;;;;14.43;8.30;;;8.00;99.90;;;;;;5092753;28;20016;-72
2021/03/30 02:46:33;;;;;;;13.07;8.35;;;7.90;99.90;;;;;;5092421;28;20024;-72
2021/03/30 02:48:59;;;;;;;12.50;8.55;;;7.90;99.90;;;;;;5092775;28;20020;-72
2021/03/30 02:51:26;;;;;;;14.63;8.77;;;7.90;99.90;;;;;;5092063;28;20061;-71
2021/03/30 02:53:53;;;;;;;17.42;9.05;;;7.80;99.90;;;;;;5092331;28;20048;-72
2021/03/30 02:56:20;;;;;;;15.45;9.70;;;7.70;99.90;;;;;;5092287;28;20099;-72
2021/03/30 02:58:45;;;;;;;14.60;9.40;;;7.70;99.90;;;;;;5106789;28;20506;-70
2021/03/30 03:01:13;;;;;;;14.75;9.05;;;7.70;99.90;;;;;;5091716;28;20032;-71
2021/03/30 03:03:40;;;;;;;13.23;9.05;;;7.60;99.90;;;;;;5092320;28;20032;-71
2021/03/30 03:06:06;;;;;;;17.55;9.38;;;7.60;99.90;;;;;;5091951;28;20024;-71
2021/03/30 03:08:33;;;;;;;9.32;8.27;;;7.60;99.90;;;;;;5095838;28;20449;-73
2021/03/30 03:10:59;;;;;;;19.98;10.13;;;7.60;99.90;;;;;;5094542;28;20384;-71
2021/03/30 03:13:25;;;;;;;13.40;8.82;;;7.50;99.90;;;;;;5092353;28;20031;-71
2021/03/30 03:15:51;;;;;;;18.15;9.63;;;7.50;99.90;;;;;;5091416;28;20024;-71
2021/03/30 03:18:18;;;;;;;18.23;9.02;;;7.60;99.90;;;;;;5091803;28;20101;-72
2021/03/30 03:20:46;;;;;;;13.27;9.50;;;7.60;99.90;;;;;;5091983;28;20034;-71
2021/03/30 03:23:13;;;;;;;17.55;9.65;;;7.50;99.90;;;;;;5090989;28;20036;-72
2021/03/30 03:25:38;;;;;;;15.48;9.15;;;7.50;99.90;;;;;;5106368;28;20028;-71
2021/03/30 03:28:04;;;;;;;17.02;10.75;;;7.50;99.90;;;;;;5091916;28;20530;-72
2021/03/30 03:30:31;;;;;;;19.27;9.82;;;7.40;99.90;;;;;;5091261;28;20472;-71
2021/03/30 03:33:14;;;;;;;14.77;9.68;;;7.30;99.90;;;;;;5092081;28;20032;-71
2021/03/30 03:35:40;;;;;;;14.25;9.88;;;7.30;99.90;;;;;;5091473;28;20024;-72
2021/03/30 03:38:06;;;;;;;12.55;9.43;;;7.30;99.90;;;;;;5091793;28;20023;-72
2021/03/30 03:40:33;;;;;;;12.98;9.35;;;7.30;99.90;;;;;;5091957;28;20024;-70
2021/03/30 03:42:59;;;;;;;18.08;8.98;;;7.30;99.90;;;;;;5091255;28;20043;-72
2021/03/30 03:45:25;;;;;;;17.45;10.45;;;7.40;99.90;;;;;;5091643;28;20024;-72
2021/03/30 03:47:51;;;;;;;16.00;9.57;;;7.30;99.90;;;;;;5092196;28;20472;-72
2021/03/30 03:50:16;;;;;;;14.57;10.23;;;7.30;99.90;;;;;;5091040;28;20046;-72
2021/03/30 03:52:52;;;;;;;16.60;9.60;;;7.30;99.90;;;;;;5091831;28;20024;-71
2021/03/30 03:55:20;;;;;;;18.67;10.15;;;7.30;99.90;;;;;;5091884;28;20036;-70
2021/03/30 03:57:57;;;;;;;16.63;10.57;;;7.30;99.90;;;;;;5102174;28;20023;-72
2021/03/30 04:00:24;;;;;;;19.10;10.75;;;7.30;99.90;;;;;;5092902;28;20024;-72
2021/03/30 04:03:04;;;;;;;20.55;10.77;;;7.30;99.90;;;;;;5091751;28;20036;-71
2021/03/30 04:05:41;;;;;;;20.73;9.38;;;7.30;99.90;;;;;;5090967;28;20043;-72
2021/03/30 04:08:13;;;;;;;20.92;10.63;;;7.30;99.90;;;;;;5091534;28;20032;-71
2021/03/30 04:10:46;;;;;;;15.63;10.57;;;7.30;99.90;;;;;;5091245;28;20141;-71
2021/03/30 04:13:15;;;;;;;17.02;11.02;;;7.30;99.90;;;;;;5091393;28;20035;-71
2021/03/30 04:15:41;;;;;;;21.20;11.55;;;7.40;99.90;;;;;;5092150;28;20032;-71
2021/03/30 04:18:06;;;;;;;15.50;11.00;;;7.40;99.90;;;;;;5094196;28;20028;-72
2021/03/30 04:20:32;;;;;;;20.38;11.77;;;7.50;99.90;;;;;;5095458;28;20059;-72
2021/03/30 04:22:58;;;;;;;21.65;10.82;;;7.50;99.90;;;;;;5095128;28;20032;-71
2021/03/30 04:25:24;;;;;;;19.70;11.38;;;7.60;99.90;;;;;;5094190;28;20032;-71
2021/03/30 04:27:50;;;;;;;24.20;12.40;;;7.60;99.90;;;;;;5095313;28;20112;-71
2021/03/30 04:30:16;;;;;;;19.70;12.13;;;7.60;99.90;;;;;;5095069;28;20110;-70
2021/03/30 04:32:42;;;;;;;19.75;11.93;;;7.60;99.90;;;;;;5094258;28;20068;-71
2021/03/30 04:35:10;;;;;;;22.50;13.07;;;7.60;99.90;;;;;;5094776;28;20062;-71
2021/03/30 04:37:35;;;;;;;24.25;12.27;;;7.60;99.90;;;;;;5094741;28;20507;-71
2021/03/30 04:40:02;;;;;;;19.67;13.30;;;7.60;99.90;;;;;;5094484;28;20028;-71
2021/03/30 04:42:27;;;;;;;19.23;12.35;;;7.60;99.90;;;;;;5094457;28;20036;-70
2021/03/30 04:44:53;;;;;;;18.33;11.43;;;7.60;99.90;;;;;;5094966;28;20164;-72
2021/03/30 04:47:21;;;;;;;25.13;12.98;;;7.60;99.90;;;;;;5093846;28;20073;-72
2021/03/30 04:49:47;;;;;;;22.33;13.45;;;7.60;99.90;;;;;;5094333;28;20023;-72
2021/03/30 04:52:12;;;;;;;21.27;12.85;;;7.50;99.90;;;;;;5094131;28;20020;-70
2021/03/30 04:54:38;;;;;;;21.05;12.43;;;7.50;99.90;;;;;;5093842;28;20016;-71
2021/03/30 04:57:04;;;;;;;18.05;11.77;;;7.50;99.90;;;;;;5099759;28;20498;-71
2021/03/30 04:59:32;;;;;;;21.70;12.20;;;7.50;99.90;;;;;;5103500;28;20028;-71
2021/03/30 05:01:58;;;;;;;21.25;13.57;;;7.40;99.90;;;;;;5093747;28;20051;-71
2021/03/30 05:04:23;;;;;;;25.50;13.18;;;7.40;99.90;;;;;;5103729;28;20446;-72
2021/03/30 05:06:49;;;;;;;26.92;12.85;;;7.40;99.90;;;;;;5098746;28;20043;-72
2021/03/30 05:09:14;;;;;;;25.88;12.82;;;7.30;99.90;;;;;;5094205;28;20476;-72
2021/03/30 05:11:40;;;;;;;19.23;12.38;;;7.30;99.90;;;;;;5094425;28;20047;-72
2021/03/30 05:14:05;;;;;;;23.60;13.55;;;7.20;99.90;;;;;;5092921;28;20059;-71
2021/03/30 05:16:31;;;;;;;22.77;13.18;;;7.20;99.90;;;;;;5094189;28;20090;-72
2021/03/30 05:18:57;;;;;;;20.75;12.85;;;7.10;99.90;;;;;;5093736;28;20514;-72
2021/03/30 05:21:22;;;;;;;22.95;13.77;;;7.10;99.90;;;;;;5093131;28;20489;-71
2021/03/30 05:23:48;;;;;;;25.17;13.50;;;7.10;99.90;;;;;;5094153;28;20028;-71
2021/03/30 05:26:14;;;;;;;22.38;13.98;;;7.00;99.90;;;;;;5093014;28;20373;-72
2021/03/30 05:28:39;;;;;;;19.25;12.63;;;7.10;99.90;;;;;;5092208;28;20452;-72
2021/03/30 05:31:05;;;;;;;18.30;12.65;;;7.00;99.90;;;;;;5093557;28;20017;-72
2021/03/30 05:33:30;;;;;;;19.63;12.40;;;7.10;99.90;;;;;;5094068;28;20027;-72
2021/03/30 05:35:56;;;;;;;23.95;13.60;;;7.00;99.90;;;;;;5093217;28;20024;-71
2021/03/30 05:38:22;;;;;;;19.10;12.35;;;7.00;99.90;;;;;;5093884;28;20109;-73
2021/03/30 05:40:48;;;;;;;20.25;12.73;;;7.00;99.90;;;;;;5093871;28;20108;-71
2021/03/30 05:43:14;;;;;;;22.73;14.05;;;7.00;99.90;;;;;;5092912;28;20031;-71
2021/03/30 05:45:39;;;;;;;23.90;13.32;;;6.90;99.90;;;;;;5093638;28;20028;-71
2021/03/30 05:48:11;;;;;;;22.30;13.63;;;7.00;99.90;;;;;;5093269;28;20052;-71
2021/03/30 05:50:37;;;;;;;27.85;14.68;;;7.00;99.90;;;;;;5091623;28;20020;-71
2021/03/30 05:53:08;;;;;;;35.00;15.30;;;7.00;99.90;;;;;;5093560;28;20016;-71
2021/03/30 05:55:37;;;;;;;27.65;14.25;;;7.10;99.90;;;;;;5093697;28;20042;-71
2021/03/30 05:58:05;;;;;;;24.55;14.20;;;7.10;99.90;;;;;;5106524;28;20056;-72
2021/03/30 06:00:34;;;;;;;29.55;15.27;;;7.10;99.90;;;;;;5093630;28;20430;-72
2021/03/30 06:03:20;;;;;;;32.38;14.93;;;7.20;99.90;;;;;;5093542;28;20044;-73
2021/03/30 06:05:46;;;;;;;28.98;14.75;;;7.20;99.90;;;;;;5093299;28;20096;-71
2021/03/30 06:08:11;;;;;;;27.77;15.02;;;7.20;99.90;;;;;;5094983;28;20097;-72
2021/03/30 06:10:37;;;;;;;28.25;14.55;;;7.30;99.90;;;;;;5107434;28;20030;-72
2021/03/30 06:13:04;;;;;;;32.72;16.13;;;7.30;99.90;;;;;;5112447;28;20042;-73
2021/03/30 06:15:33;;;;;;;25.95;14.80;;;7.40;99.90;;;;;;5109658;28;20099;-72
2021/03/30 06:18:03;;;;;;;28.92;16.17;;;7.40;99.90;;;;;;5109059;28;20053;-72
2021/03/30 06:20:36;;;;;;;29.35;16.35;;;7.50;99.90;;;;;;5107596;28;20047;-71
2021/03/30 06:23:06;;;;;;;33.58;16.80;;;7.60;99.90;;;;;;5111051;28;20039;-72
2021/03/30 06:25:46;;;;;;;35.97;16.90;;;7.60;99.90;;;;;;5107049;28;20031;-71
2021/03/30 06:28:29;;;;;;;35.42;18.35;;;7.70;99.90;;;;;;5107929;28;20031;-71
2021/03/30 06:31:02;;;;;;;31.50;17.02;;;7.70;99.90;;;;;;5108423;28;20128;-72
2021/03/30 06:33:34;;;;;;;34.92;17.67;;;7.80;99.90;;;;;;5104858;28;20016;-71
2021/03/30 06:36:28;;;;;;;32.13;17.98;;;7.90;99.90;;;;;;5094031;28;20505;-72
2021/03/30 06:39:05;;;;;;;39.05;18.55;;;8.00;99.90;;;;;;5109550;28;20172;-72
2021/03/30 06:41:44;;;;;;;36.03;18.52;;;8.10;99.90;;;;;;5091924;28;20416;-72
2021/03/30 06:44:27;;;;;;;38.75;18.17;;;8.10;99.90;;;;;;5091940;28;20460;-74
2021/03/30 06:47:03;;;;;;;41.40;20.33;;;8.20;99.90;;;;;;5091400;28;20020;-74
2021/03/30 06:49:31;;;;;;;38.30;19.58;;;8.30;99.90;;;;;;5092854;28;20146;-74
2021/03/30 06:51:58;;;;;;;51.85;23.05;;;8.40;99.90;;;;;;5092153;28;20016;-74
2021/03/30 06:54:24;;;;;;;50.60;23.35;;;8.50;99.90;;;;;;5091383;28;20360;-75
2021/03/30 06:56:56;;;;;;;38.85;20.92;;;8.60;99.90;;;;;;5106170;28;20028;-74
2021/03/30 06:59:23;;;;;;;40.75;21.85;;;8.60;99.90;;;;;;5103375;28;20049;-74
2021/03/30 07:01:55;;;;;;;51.25;24.48;;;8.70;99.90;;;;;;5109497;28;20039;-74
2021/03/30 07:04:20;;;;;;;45.20;22.98;;;8.80;99.90;;;;;;5094850;28;20020;-74
2021/03/30 07:06:53;;;;;;;40.88;22.35;;;8.90;99.90;;;;;;5091639;28;20062;-74
2021/03/30 07:09:23;;;;;;;44.53;22.73;;;8.90;99.90;;;;;;5095539;28;20016;-75
2021/03/30 07:11:50;;;;;;;51.72;24.23;;;9.00;99.90;;;;;;5097651;28;20020;-73
2021/03/30 07:14:15;;;;;;;45.00;23.88;;;9.20;99.90;;;;;;5090861;28;20032;-74
2021/03/30 07:16:56;;;;;;;56.53;23.40;;;9.20;99.90;;;;;;5091576;28;20016;-73
2021/03/30 07:19:23;;;;;;;52.70;25.13;;;9.40;99.90;;;;;;5093679;28;20054;-74
2021/03/30 07:22:00;;;;;;;49.83;26.10;;;9.40;99.90;;;;;;5090810;28;20032;-75
2021/03/30 07:24:40;;;;;;;47.45;22.80;;;9.50;99.90;;;;;;5108038;28;20024;-75
2021/03/30 07:27:07;;;;;;;;;;;9.60;99.90;;;;;;5108504;28;20360;-75
2021/03/30 07:29:40;;;;;;;47.53;22.40;;;9.70;99.90;;;;;;5091210;28;19955;-76
2021/03/30 07:32:10;;;;;;;49.97;24.35;;;9.80;99.90;;;;;;5097153;28;20073;-75
2021/03/30 07:34:48;;;;;;;47.72;23.42;;;9.90;99.90;;;;;;5097111;28;20047;-74
2021/03/30 07:37:43;;;;;;;55.92;26.17;;;9.90;99.90;;;;;;5091657;28;20020;-74
2021/03/30 07:40:10;;;;;;;52.55;25.10;;;10.00;99.90;;;;;;5087997;28;20429;-75
2021/03/30 07:42:40;;;;;;;50.72;24.38;;;10.10;99.90;;;;;;5101404;28;20047;-74
2021/03/30 07:45:09;;;;;;;49.10;24.25;;;10.10;99.90;;;;;;5098327;28;20590;-75
2021/03/30 07:47:35;;;;;;;47.70;24.95;;;10.20;99.90;;;;;;5109103;28;20407;-75
2021/03/30 07:50:01;;;;;;;53.85;26.52;;;10.30;99.90;;;;;;5108200;28;20028;-74
2021/03/30 07:52:29;;;;;;;54.72;26.13;;;10.40;99.90;;;;;;5103255;28;20046;-75
2021/03/30 07:55:19;;;;;;;53.55;28.15;;;10.50;99.90;;;;;;5104578;28;20028;-74
2021/03/30 07:58:16;;;;;;;49.80;26.08;;;10.60;99.90;;;;;;5106239;28;20410;-75
2021/03/30 08:00:47;;;;;;;48.03;25.52;;;10.70;99.90;;;;;;5108874;28;20047;-74
2021/03/30 08:03:15;;;;;;;47.42;26.38;;;10.80;99.90;;;;;;5094764;28;20084;-74
2021/03/30 08:05:40;;;;;;;52.20;26.58;;;11.00;99.90;;;;;;5095594;28;20031;-72
2021/03/30 08:08:24;;;;;;;47.78;25.05;;;11.00;99.90;;;;;;5095390;28;20024;-73
2021/03/30 08:10:54;;;;;;;50.30;26.17;;;11.10;99.90;;;;;;5094791;28;20502;-71
2021/03/30 08:13:25;;;;;;;59.53;28.02;;;11.30;99.90;;;;;;5097369;28;20106;-73
2021/03/30 08:15:56;;;;;;;51.60;23.80;;;11.40;99.90;;;;;;5095900;28;20024;-75
2021/03/30 08:18:24;;;;;;;46.28;25.38;;;11.40;99.90;;;;;;5094733;28;20487;-75
2021/03/30 08:20:56;;;;;;;48.00;25.73;;;11.50;99.90;;;;;;5096883;28;20042;-75
2021/03/30 08:23:22;;;;;;;47.90;25.30;;;11.60;99.90;;;;;;5115933;28;20081;-75
2021/03/30 08:25:52;;;;;;;45.17;24.60;;;11.60;99.90;;;;;;5114871;28;20016;-75
2021/03/30 08:28:48;;;;;;;41.23;22.50;;;11.70;99.90;;;;;;5115449;28;20490;-74
2021/03/30 08:31:38;;;;;;;47.15;23.45;;;11.80;99.90;;;;;;5097700;28;20020;-76
2021/03/30 08:34:08;;;;;;;48.42;24.65;;;11.90;99.90;;;;;;5085683;28;20043;-77
2021/03/30 08:36:33;;;;;;;48.85;25.63;;;12.00;99.90;;;;;;5104794;28;20024;-75
2021/03/30 08:39:18;;;;;;;51.42;25.02;;;12.00;99.90;;;;;;5110344;28;20027;-75
2021/03/30 08:41:47;;;;;;;52.78;26.63;;;12.10;99.90;;;;;;5106229;28;20039;-75
2021/03/30 08:44:14;;;;;;;50.92;26.23;;;12.20;99.90;;;;;;5110540;28;20020;-74
2021/03/30 08:46:41;;;;;;;58.72;27.08;;;12.30;99.90;;;;;;5110667;28;20489;-75
2021/03/30 08:49:25;;;;;;;50.15;25.02;;;12.30;99.90;;;;;;5104287;28;20467;-75
2021/03/30 08:51:52;;;;;;;52.92;27.25;;;12.40;99.90;;;;;;5104298;28;20024;-76
2021/03/30 08:54:22;;;;;;;50.67;25.35;;;12.40;99.90;;;;;;5101019;28;20095;-74
2021/03/30 08:56:49;;;;;;;47.90;24.05;;;12.50;99.90;;;;;;5095664;28;20035;-74
2021/03/30 08:59:19;;;;;;;52.70;26.95;;;12.60;99.90;;;;;;5106918;28;20679;-73
2021/03/30 09:01:45;;;;;;;56.35;26.20;;;12.70;99.90;;;;;;5114360;28;20035;-74
2021/03/30 09:04:11;;;;;;;55.28;27.83;;;12.80;99.90;;;;;;5104970;28;20032;-73
2021/03/30 09:06:37;;;;;;;51.72;25.45;;;12.90;99.90;;;;;;5096899;28;20406;-73
2021/03/30 09:09:18;;;;;;;46.30;25.48;;;13.00;99.90;;;;;;5094905;28;20038;-74
2021/03/30 09:11:43;;;;;;;48.08;25.88;;;13.10;99.90;;;;;;5097943;28;20055;-73
2021/03/30 09:14:09;;;;;;;50.00;24.25;;;13.20;99.90;;;;;;5096547;28;20056;-73
2021/03/30 09:16:36;;;;;;;43.15;23.25;;;13.20;99.90;;;;;;5105508;28;20106;-72
2021/03/30 09:19:28;;;;;;;47.13;23.95;;;13.30;99.90;;;;;;5098541;28;20051;-73
2021/03/30 09:22:02;;;;;;;50.08;23.20;;;13.30;99.90;;;;;;5100085;28;20051;-73
2021/03/30 09:27:20;;;;;;;47.50;24.80;;;13.50;99.90;;;;;;5106250;28;20528;-74
2021/03/30 09:29:45;;;;;;;42.92;24.50;;;13.60;99.90;;;;;;5095475;28;20165;-74
2021/03/30 09:32:11;;;;;;;46.15;25.05;;;13.70;99.90;;;;;;5094069;28;20115;-74
2021/03/30 09:34:40;;;;;;;42.55;23.83;;;13.80;99.90;;;;;;5094024;28;20028;-72
2021/03/30 09:37:06;;;;;;;50.30;25.17;;;14.00;99.90;;;;;;5094246;28;20077;-73
2021/03/30 09:39:35;;;;;;;52.47;24.05;;;14.10;99.90;;;;;;5094035;28;20443;-72
2021/03/30 09:42:00;;;;;;;45.97;25.13;;;14.20;99.90;;;;;;5092888;28;20235;-74
2021/03/30 09:44:33;;;;;;;45.88;26.42;;;14.30;99.90;;;;;;5103297;28;20638;-74
2021/03/30 09:46:59;;;;;;;49.53;25.88;;;14.40;99.90;;;;;;5109164;28;20027;-74
2021/03/30 09:49:25;;;;;;;42.53;23.38;;;14.50;99.90;;;;;;5105782;28;20020;-73
2021/03/30 09:51:53;;;;;;;43.67;23.98;;;14.60;99.90;;;;;;5107148;28;20030;-74
2021/03/30 09:54:30;;;;;;;45.70;24.10;;;14.60;99.90;;;;;;5101591;28;20027;-75
2021/03/30 09:56:59;;;;;;;53.25;27.55;;;14.70;99.90;;;;;;5094893;28;20040;-75
2021/03/30 09:59:25;;;;;;;43.28;24.02;;;14.90;99.90;;;;;;5091449;28;20028;-74
2021/03/30 10:01:58;;;;;;;39.88;22.92;;;14.90;99.90;;;;;;5104477;28;20085;-74
2021/03/30 10:04:34;;;;;;;42.85;24.17;;;15.10;99.90;;;;;;5092069;28;20031;-75
2021/03/30 10:07:13;;;;;;;42.00;22.95;;;15.10;99.90;;;;;;5098646;28;20082;-78
2021/03/30 10:10:06;;;;;;;44.58;24.02;;;15.30;99.90;;;;;;5106713;28;20178;-76
2021/03/30 10:12:36;;;;;;;41.83;23.40;;;15.60;99.90;;;;;;5100123;28;20403;-77
2021/03/30 10:15:04;;;;;;;40.40;22.85;;;15.80;99.90;;;;;;5092393;28;20024;-78
2021/03/30 10:17:31;;;;;;;39.97;22.15;;;15.90;99.90;;;;;;5109079;28;20067;-78
2021/03/30 10:19:58;;;;;;;37.78;21.05;;;16.00;99.90;;;;;;5112666;28;20048;-79
2021/03/30 10:22:26;;;;;;;38.40;20.67;;;16.10;99.90;;;;;;5102949;28;20039;-78
2021/03/30 10:25:17;;;;;;;41.45;19.85;;;16.10;99.90;;;;;;5103774;28;20527;-79
2021/03/30 10:27:54;;;;;;;32.38;18.58;;;16.10;99.90;;;;;;5101067;28;20119;-78
2021/03/30 10:30:32;;;;;;;38.63;19.42;;;16.20;99.90;;;;;;5108574;28;20085;-77
2021/03/30 10:33:03;;;;;;;29.95;18.35;;;16.20;99.90;;;;;;5107825;28;20089;-77
2021/03/30 10:35:29;;;;;;;;;;;16.30;99.90;;;;;;5102299;28;20020;-78
2021/03/30 10:37:56;;;;;;;34.22;18.08;;;16.30;98.20;;;;;;5107438;28;19903;-77
2021/03/30 10:40:29;;;;;;;33.88;18.80;;;16.40;97.70;;;;;;5102317;28;20127;-78
2021/03/30 10:42:54;;;;;;;38.65;19.30;;;16.50;97.70;;;;;;5092633;28;20065;-77
2021/03/30 10:45:28;;;;;;;38.53;19.73;;;16.50;98.10;;;;;;5108358;28;20507;-76
2021/03/30 10:47:59;;;;;;;44.47;20.98;;;16.60;97.70;;;;;;5102559;28;20051;-77
2021/03/30 10:50:24;;;;;;;40.30;20.88;;;16.70;98.20;;;;;;5096449;28;20020;-80
2021/03/30 10:52:50;;;;;;;41.72;23.05;;;16.80;98.40;;;;;;5108156;28;20070;-77
2021/03/30 10:55:17;;;;;;;39.92;21.85;;;16.90;97.90;;;;;;5100024;28;20084;-78
2021/03/30 10:57:48;;;;;;;39.42;22.02;;;17.00;97.80;;;;;;5114895;28;20031;-79
2021/03/30 11:00:15;;;;;;;40.75;21.92;;;17.00;98.40;;;;;;5096401;28;20020;-77
2021/03/30 11:02:45;;;;;;;44.17;22.85;;;17.20;98.60;;;;;;5092390;28;20039;-79
2021/03/30 11:05:15;;;;;;;43.95;22.88;;;17.20;98.80;;;;;;5095531;28;20026;-78
2021/03/30 11:07:41;;;;;;;44.58;23.25;;;17.40;98.50;;;;;;5114345;28;20108;-78
2021/03/30 11:10:10;;;;;;;43.88;22.48;;;17.40;97.50;;;;;;5099290;28;20028;-78
2021/03/30 11:12:36;;;;;;;43.60;23.15;;;17.50;97.00;;;;;;5095117;28;20024;-78
2021/03/30 11:15:04;;;;;;;48.25;23.73;;;17.50;96.40;;;;;;5100522;28;20070;-78
2021/03/30 11:17:29;;;;;;;42.60;23.15;;;17.60;96.50;;;;;;5092564;28;20029;-78
2021/03/30 11:19:58;;;;;;;47.13;22.67;;;17.70;95.50;;;;;;5091594;28;20141;-79
2021/03/30 11:22:24;;;;;;;40.05;22.60;;;17.70;95.10;;;;;;5097935;28;20048;-79
2021/03/30 11:24:56;;;;;;;40.35;22.05;;;17.90;95.20;;;;;;5094471;28;20119;-80
2021/03/30 11:27:21;;;;;;;43.88;22.52;;;17.90;94.30;;;;;;5104253;28;20073;-79
2021/03/30 11:32:44;;;;;;;41.85;21.50;;;18.00;93.00;;;;;;5068772;28;20035;-79
2021/03/30 11:37:48;;;;;;;30.55;17.65;;;18.10;92.60;;;;;;5110225;28;20012;-79
2021/03/30 11:40:17;;;;;;;34.58;18.70;;;18.20;91.30;;;;;;5107584;28;20019;-79
2021/03/30 11:42:42;;;;;;;33.15;17.85;;;18.30;90.60;;;;;;5101689;28;20052;-78
2021/03/30 11:45:09;;;;;;;30.60;17.48;;;18.30;88.60;;;;;;5096665;28;20469;-79
2021/03/30 11:47:35;;;;;;;34.83;18.27;;;18.40;87.20;;;;;;5111142;28;20506;-79
2021/03/30 11:50:01;;;;;;;31.38;16.85;;;18.40;85.50;;;;;;5109058;28;20070;-78
2021/03/30 11:52:26;;;;;;;30.38;17.83;;;18.50;83.30;;;;;;5106851;28;20482;-78
2021/03/30 11:54:52;;;;;;;34.70;18.80;;;18.60;81.80;;;;;;5098541;28;20041;-79
2021/03/30 11:57:20;;;;;;;27.70;16.27;;;18.60;79.50;;;;;;5103195;28;20360;-78
2021/03/30 11:59:46;;;;;;;31.02;17.17;;;18.70;78.10;;;;;;5098388;28;20028;-77
2021/03/30 12:02:11;;;;;;;37.28;17.85;;;18.80;77.00;;;;;;5090882;28;20390;-78
2021/03/30 12:04:37;;;;;;;35.15;16.40;;;18.80;76.00;;;;;;5102526;28;20023;-79
2021/03/30 12:07:03;;;;;;;35.03;16.65;;;18.90;76.00;;;;;;5097157;28;20353;-78
2021/03/30 12:09:29;;;;;;;29.73;16.15;;;19.00;74.00;;;;;;5098733;28;20617;-79
2021/03/30 12:11:54;;;;;;;27.15;15.95;;;19.00;73.60;;;;;;5095669;28;20111;-80
2021/03/30 12:14:20;;;;;;;28.20;14.95;;;19.10;72.30;;;;;;5096810;28;20020;-81
2021/03/30 12:16:47;;;;;;;29.70;14.88;;;19.20;72.20;;;;;;5100388;28;20103;-81
2021/03/30 12:19:16;;;;;;;27.60;15.43;;;19.30;69.30;;;;;;5091335;28;20051;-81
2021/03/30 12:21:42;;;;;;;33.08;16.15;;;19.30;68.60;;;;;;5097751;28;20036;-81
2021/03/30 12:24:09;;;;;;;31.80;16.55;;;19.40;69.40;;;;;;5090878;28;20410;-81
2021/03/30 12:26:34;;;;;;;32.72;15.82;;;19.50;69.00;;;;;;5090909;28;20042;-83
2021/03/30 12:29:02;;;;;;;31.42;15.48;;;19.50;67.60;;;;;;5098672;28;20736;-75
2021/03/30 12:31:28;;;;;;;28.33;15.80;;;19.60;66.80;;;;;;5095854;28;20096;-78
2021/03/30 12:33:56;;;;;;;28.58;14.93;;;19.70;65.50;;;;;;5111794;28;20467;-78
2021/03/30 12:36:22;;;;;;;29.23;15.43;;;19.80;65.70;;;;;;5107548;28;20036;-79
2021/03/30 12:38:47;;;;;;;30.42;14.65;;;19.90;65.90;;;;;;5092259;28;20073;-79
2021/03/30 12:41:13;;;;;;;38.17;16.25;;;19.90;64.70;;;;;;5108302;28;20555;-79
2021/03/30 12:43:39;;;;;;;28.90;16.27;;;20.00;63.10;;;;;;5113437;28;20227;-79
2021/03/30 12:46:04;;;;;;;30.92;16.80;;;20.10;64.70;;;;;;5112577;28;20028;-79
2021/03/30 12:48:30;;;;;;;31.77;17.08;;;20.10;64.40;;;;;;5113625;28;20011;-79
2021/03/30 12:50:56;;;;;;;35.22;16.90;;;20.10;65.00;;;;;;5102772;28;20107;-79
2021/03/30 12:53:24;;;;;;;40.05;18.70;;;20.20;65.20;;;;;;5094079;28;20333;-80
2021/03/30 12:55:50;;;;;;;34.55;18.52;;;20.30;62.20;;;;;;5094980;28;20107;-78